createdAt,value
2018-11-23T00:00:29.807Z,5.63
2018-11-23T00:03:00.115Z,5.53
2018-11-23T00:05:29.732Z,5.37
2018-11-23T00:08:00.070Z,5.63
2018-11-23T00:10:31.371Z,5.67
2018-11-23T00:13:00.992Z,5.47
2018-11-23T00:18:24.771Z,5.13
2018-11-23T00:20:54.390Z,4.53
2018-11-23T00:23:23.970Z,3.93
2018-11-23T00:25:53.934Z,3.63
2018-11-23T00:28:23.549Z,5.20
2018-11-23T00:30:53.132Z,5.10
2018-11-23T00:33:22.714Z,5.40
2018-11-23T00:35:52.410Z,5.57
2018-11-23T00:38:22.007Z,5.17
2018-11-23T00:40:52.267Z,5.03
2018-11-23T00:43:21.899Z,3.83
2018-11-23T00:45:51.479Z,5.53
2018-11-23T00:48:21.096Z,4.57
2018-11-23T00:50:50.715Z,4.73
2018-11-23T00:53:20.313Z,5.57
2018-11-23T00:55:49.912Z,5.20
2018-11-23T00:58:19.527Z,5.13
2018-11-23T01:00:49.142Z,4.47
2018-11-23T01:03:18.720Z,4.60
2018-11-23T01:05:48.410Z,4.83
2018-11-23T01:08:18.001Z,4.93
2018-11-23T01:11:06.253Z,5.87
2018-11-23T01:13:35.972Z,4.80
2018-11-23T01:16:05.540Z,5.60
2018-11-23T01:18:35.142Z,4.63
2018-11-23T01:21:04.715Z,4.83
2018-11-23T01:23:34.303Z,4.30
2018-11-23T01:26:03.941Z,4.37
2018-11-23T01:28:33.616Z,5.63
2018-11-23T01:31:03.224Z,6.30
2018-11-23T01:33:32.841Z,6.50
2018-11-23T01:36:02.423Z,5.90
2018-11-23T01:38:32.326Z,6.97
2018-11-23T01:41:02.290Z,6.47
2018-11-23T01:43:32.104Z,6.53
2018-11-23T01:46:01.740Z,6.67
2018-11-23T01:48:31.354Z,6.47
2018-11-23T01:51:00.934Z,6.53
2018-11-23T01:53:30.551Z,6.13
2018-11-23T01:56:00.175Z,6.13
2018-11-23T01:58:29.791Z,7.40
2018-11-23T02:01:18.038Z,7.17
2018-11-23T02:06:41.942Z,6.37
2018-11-23T02:09:30.165Z,6.60
2018-11-23T02:11:59.808Z,7.37
2018-11-23T02:14:29.502Z,7.10
2018-11-23T02:17:17.822Z,6.63
2018-11-23T02:19:47.403Z,7.20
2018-11-23T02:22:16.985Z,6.50
2018-11-23T02:24:46.641Z,5.77
2018-11-23T02:27:16.268Z,6.47
2018-11-23T02:29:45.870Z,7.40
2018-11-23T02:32:34.437Z,6.77
2018-11-23T02:35:16.177Z,6.30
2018-11-23T02:37:46.200Z,6.63
2018-11-23T02:40:17.006Z,5.83
2018-11-23T02:42:46.678Z,6.27
2018-11-23T02:45:36.044Z,6.20
2018-11-23T02:50:59.373Z,5.27
2018-11-23T02:53:28.954Z,5.77
2018-11-23T02:55:58.621Z,5.83
2018-11-23T02:58:28.189Z,6.30
2018-11-23T03:00:57.850Z,6.20
2018-11-23T03:03:27.447Z,5.90
2018-11-23T03:08:32.002Z,6.17
2018-11-23T03:11:01.623Z,6.40
2018-11-23T03:13:31.208Z,6.40
2018-11-23T03:16:00.795Z,5.03
2018-11-23T03:18:30.522Z,6.23
2018-11-23T03:21:00.106Z,6.07
2018-11-23T03:23:29.670Z,6.40
2018-11-23T03:25:59.275Z,6.27
2018-11-23T03:28:29.212Z,4.50
2018-11-23T03:30:59.134Z,5.97
2018-11-23T03:33:28.789Z,5.90
2018-11-23T03:35:58.356Z,6.23
2018-11-23T03:38:27.957Z,6.70
2018-11-23T03:40:57.562Z,6.83
2018-11-23T03:43:27.150Z,5.57
2018-11-23T03:45:56.981Z,6.30
2018-11-23T03:48:26.664Z,5.77
2018-11-23T03:50:56.325Z,6.00
2018-11-23T03:53:25.956Z,5.47
2018-11-23T03:55:55.577Z,6.53
2018-11-23T03:58:25.153Z,6.57
2018-11-23T04:00:54.726Z,6.03
2018-11-23T04:03:24.446Z,6.07
2018-11-23T04:05:54.017Z,6.43
2018-11-23T04:08:23.754Z,5.90
2018-11-23T04:10:53.375Z,6.53
2018-11-23T04:13:22.939Z,6.37
2018-11-23T04:15:52.508Z,6.40
2018-11-23T04:18:22.388Z,6.03
2018-11-23T04:21:10.676Z,6.57
2018-11-23T04:23:40.246Z,6.73
2018-11-23T04:26:09.843Z,5.40
2018-11-23T04:28:39.419Z,6.27
2018-11-23T04:31:09.059Z,6.37
2018-11-23T04:33:38.893Z,6.27
2018-11-23T04:36:08.472Z,6.50
2018-11-23T04:38:56.769Z,6.00
2018-11-23T04:41:26.728Z,6.47
2018-11-23T04:43:56.314Z,7.10
2018-11-23T04:46:25.975Z,6.57
2018-11-23T04:48:55.707Z,6.87
2018-11-23T04:51:25.318Z,7.40
2018-11-23T04:53:54.951Z,6.37
2018-11-23T04:56:24.540Z,6.47
2018-11-23T04:58:54.189Z,7.90
2018-11-23T05:01:23.794Z,7.47
2018-11-23T05:03:53.917Z,7.97
2018-11-23T05:06:23.506Z,6.13
2018-11-23T05:08:53.214Z,7.00
2018-11-23T05:11:22.815Z,6.83
2018-11-23T05:13:52.417Z,6.70
2018-11-23T05:16:22.052Z,6.30
2018-11-23T05:18:51.660Z,6.73
2018-11-23T05:21:40.263Z,6.50
2018-11-23T05:24:21.146Z,5.60
2018-11-23T05:27:09.673Z,5.07
2018-11-23T05:29:39.324Z,6.47
2018-11-23T05:32:09.299Z,7.67
2018-11-23T05:34:38.902Z,6.60
2018-11-23T05:37:08.496Z,7.07
2018-11-23T05:39:38.098Z,6.97
2018-11-23T05:42:07.770Z,6.53
2018-11-23T05:44:37.452Z,6.90
2018-11-23T05:47:07.620Z,5.10
2018-11-23T05:49:37.258Z,6.23
2018-11-23T05:52:06.895Z,6.47
2018-11-23T05:54:36.709Z,6.83
2018-11-23T05:57:06.348Z,6.50
2018-11-23T05:59:35.982Z,7.73
2018-11-23T06:02:05.589Z,7.00
2018-11-23T06:04:35.484Z,7.00
2018-11-23T06:07:05.202Z,6.80
2018-11-23T06:09:35.104Z,7.77
2018-11-23T06:12:23.698Z,7.43
2018-11-23T06:14:53.352Z,7.17
2018-11-23T06:17:42.163Z,6.53
2018-11-23T06:20:14.224Z,7.23
2018-11-23T06:22:44.707Z,6.80
2018-11-23T06:25:34.876Z,7.13
2018-11-23T06:28:04.610Z,7.60
2018-11-23T06:30:34.233Z,7.50
2018-11-23T06:33:45.941Z,6.93
2018-11-23T06:36:15.542Z,6.43
2018-11-23T06:38:45.151Z,4.87
2018-11-23T06:41:14.833Z,6.77
2018-11-23T06:43:44.455Z,7.70
2018-11-23T06:46:14.392Z,7.80
2018-11-23T06:48:44.010Z,5.83
2018-11-23T06:51:13.788Z,3.70
2018-11-23T06:53:43.383Z,4.70
2018-11-23T06:56:31.664Z,6.70
2018-11-23T06:59:01.644Z,7.23
2018-11-23T07:01:31.255Z,7.63
2018-11-23T07:04:00.868Z,7.23
2018-11-23T07:06:30.571Z,6.77
2018-11-23T07:09:00.249Z,5.57
2018-11-23T07:11:49.118Z,7.33
2018-11-23T07:14:18.689Z,4.53
2018-11-23T07:16:48.348Z,4.67
2018-11-23T07:19:17.950Z,4.87
2018-11-23T07:21:47.603Z,7.53
2018-11-23T07:24:17.217Z,7.00
2018-11-23T07:29:42.393Z,7.30
2018-11-23T07:32:12.026Z,6.70
2018-11-23T07:34:41.617Z,7.40
2018-11-23T07:37:11.198Z,6.93
2018-11-23T07:40:19.819Z,7.50
2018-11-23T07:42:49.438Z,7.03
2018-11-23T07:45:19.018Z,7.43
2018-11-23T07:47:48.642Z,6.10
2018-11-23T07:50:18.298Z,8.40
2018-11-23T07:52:47.868Z,5.23
2018-11-23T07:55:17.487Z,6.70
2018-11-23T07:57:47.075Z,6.87
2018-11-23T08:00:18.837Z,7.80
2018-11-23T08:02:48.920Z,7.80
2018-11-23T08:05:37.738Z,6.67
2018-11-23T08:08:07.945Z,7.50
2018-11-23T08:10:36.330Z,6.90
2018-11-23T08:13:06.382Z,5.47
2018-11-23T08:15:36.016Z,7.00
2018-11-23T08:18:05.674Z,6.20
2018-11-23T08:20:54.008Z,7.50
2018-11-23T08:23:23.599Z,7.80
2018-11-23T08:26:12.219Z,6.00
2018-11-23T08:29:00.704Z,7.87
2018-11-23T08:31:30.320Z,7.40
2018-11-23T08:33:59.911Z,7.73
2018-11-23T08:36:29.542Z,4.23
2018-11-23T08:39:04.608Z,7.63
2018-11-23T08:41:28.863Z,8.07
2018-11-23T08:43:58.371Z,6.73
2018-11-23T08:46:28.015Z,7.53
2018-11-23T08:48:57.588Z,6.07
2018-11-23T08:51:27.420Z,7.47
2018-11-23T08:53:57.044Z,5.47
2018-11-23T08:56:26.689Z,7.17
2018-11-23T08:59:14.952Z,7.13
2018-11-23T09:01:44.545Z,7.53
2018-11-23T09:04:14.176Z,8.10
2018-11-23T09:06:43.917Z,7.57
2018-11-23T09:09:13.538Z,8.13
2018-11-23T09:11:43.121Z,7.23
2018-11-23T09:14:13.130Z,8.57
2018-11-23T09:17:01.813Z,7.30
2018-11-23T09:19:31.405Z,5.53
2018-11-23T09:22:23.535Z,7.40
2018-11-23T09:24:49.705Z,8.53
2018-11-23T09:27:19.322Z,7.80
2018-11-23T09:29:48.944Z,9.07
2018-11-23T09:32:19.429Z,7.57
2018-11-23T09:34:49.048Z,4.37
2018-11-23T09:37:18.970Z,8.90
2018-11-23T09:39:48.631Z,5.60
2018-11-23T09:42:18.204Z,4.27
2018-11-23T09:45:06.462Z,6.83
2018-11-23T09:50:30.144Z,7.53
2018-11-23T09:53:01.367Z,6.47
2018-11-23T09:55:31.988Z,7.73
2018-11-23T09:58:01.634Z,7.97
2018-11-23T10:00:50.187Z,7.57
2018-11-23T10:03:19.786Z,8.27
2018-11-23T10:05:49.391Z,6.93
2018-11-23T10:08:19.228Z,7.53
2018-11-23T10:10:48.892Z,8.37
2018-11-23T10:13:18.469Z,6.17
2018-11-23T10:15:48.394Z,5.97
2018-11-23T10:18:36.630Z,6.50
2018-11-23T10:21:25.473Z,5.93
2018-11-23T10:23:55.547Z,7.07
2018-11-23T10:26:25.117Z,7.20
2018-11-23T10:28:54.690Z,6.07
2018-11-23T10:31:24.306Z,5.47
2018-11-23T10:33:53.885Z,6.93
2018-11-23T10:36:23.529Z,7.00
2018-11-23T10:39:11.949Z,6.97
2018-11-23T10:41:41.535Z,6.87
2018-11-23T10:44:11.161Z,6.00
2018-11-23T10:46:40.808Z,6.97
2018-11-23T10:49:10.754Z,5.90
2018-11-23T10:51:40.329Z,5.50
2018-11-23T10:54:09.953Z,7.43
2018-11-23T10:56:39.836Z,6.60
2018-11-23T10:59:09.346Z,7.07
2018-11-23T11:01:57.670Z,5.73
2018-11-23T11:04:45.993Z,6.70
2018-11-23T11:07:15.625Z,6.57
2018-11-23T11:10:03.834Z,6.70
2018-11-23T11:12:34.223Z,6.90
2018-11-23T11:15:04.053Z,7.83
2018-11-23T11:17:33.634Z,8.37
2018-11-23T11:22:39.130Z,7.53
2018-11-23T11:25:09.887Z,6.40
2018-11-23T11:27:40.584Z,7.70
2018-11-23T11:30:30.354Z,7.70
2018-11-23T11:33:00.063Z,7.67
2018-11-23T11:35:29.644Z,6.63
2018-11-23T11:37:59.277Z,6.53
2018-11-23T11:40:29.004Z,8.10
2018-11-23T11:42:58.957Z,8.00
2018-11-23T11:45:28.580Z,8.07
2018-11-23T11:47:58.167Z,7.73
2018-11-23T11:50:27.743Z,7.63
2018-11-23T11:52:57.365Z,7.83
2018-11-23T11:55:26.956Z,7.60
2018-11-23T12:00:45.206Z,6.93
2018-11-23T12:03:14.823Z,7.93
2018-11-23T12:06:03.101Z,8.33
2018-11-23T12:08:32.716Z,8.30
2018-11-23T12:11:02.298Z,6.67
2018-11-23T12:16:26.352Z,7.10
2018-11-23T12:18:55.992Z,6.80
2018-11-23T12:21:25.580Z,6.63
2018-11-23T12:23:55.146Z,7.80
2018-11-23T12:26:24.769Z,8.60
2018-11-23T12:28:54.360Z,7.73
2018-11-23T12:31:24.379Z,5.97
2018-11-23T12:33:54.005Z,6.53
2018-11-23T12:36:23.643Z,9.63
2018-11-23T12:38:53.305Z,5.97
2018-11-23T12:41:23.272Z,8.57
2018-11-23T12:43:52.901Z,7.80
2018-11-23T12:46:23.230Z,9.43
2018-11-23T12:49:12.369Z,6.63
2018-11-23T12:51:41.946Z,7.87
2018-11-23T12:54:30.372Z,6.40
2018-11-23T12:57:00.094Z,6.40
2018-11-23T12:59:29.685Z,6.87
2018-11-23T13:01:59.961Z,7.40
2018-11-23T13:04:29.543Z,7.13
2018-11-23T13:07:18.326Z,7.67
2018-11-23T13:09:47.944Z,6.53
2018-11-23T13:12:17.556Z,6.97
2018-11-23T13:14:47.454Z,6.63
2018-11-23T13:17:35.937Z,6.40
2018-11-23T13:20:07.552Z,6.20
2018-11-23T13:22:37.307Z,6.83
2018-11-23T13:25:27.604Z,6.57
2018-11-23T13:27:57.360Z,7.30
2018-11-23T13:30:31.560Z,6.50
2018-11-23T13:33:01.139Z,7.47
2018-11-23T13:35:30.847Z,7.33
2018-11-23T13:38:00.714Z,6.53
2018-11-23T13:40:30.815Z,7.40
2018-11-23T13:43:01.569Z,6.33
2018-11-23T13:45:32.825Z,7.77
2018-11-23T13:48:02.633Z,6.80
2018-11-23T13:50:32.210Z,7.33
2018-11-23T13:53:02.803Z,7.80
2018-11-23T13:55:32.481Z,6.03
2018-11-23T13:58:02.354Z,6.60
2018-11-23T14:00:31.975Z,8.27
2018-11-23T14:03:02.160Z,7.07
2018-11-23T14:05:32.740Z,6.27
2018-11-23T14:08:03.932Z,7.60
2018-11-23T14:10:33.535Z,5.97
2018-11-23T14:13:03.129Z,5.27
2018-11-23T14:15:51.526Z,7.33
2018-11-23T14:18:42.830Z,6.80
2018-11-23T14:21:12.569Z,6.60
2018-11-23T14:23:42.157Z,6.50
2018-11-23T14:26:11.710Z,6.70
2018-11-23T14:28:41.451Z,5.93
2018-11-23T14:31:11.027Z,5.13
2018-11-23T14:33:40.704Z,6.10
2018-11-23T14:36:10.504Z,6.63
2018-11-23T14:38:40.101Z,6.60
2018-11-23T14:41:09.696Z,6.63
2018-11-23T14:43:39.543Z,6.10
2018-11-23T14:46:09.147Z,5.37
2018-11-23T14:48:38.850Z,6.77
2018-11-23T14:51:09.071Z,6.03
2018-11-23T14:53:38.671Z,5.43
2018-11-23T14:56:08.370Z,5.93
2018-11-23T14:58:38.022Z,6.70
2018-11-23T15:01:07.996Z,5.37
2018-11-23T15:03:37.755Z,6.43
2018-11-23T15:06:07.323Z,5.10
2018-11-23T15:08:36.909Z,6.53
2018-11-23T15:11:07.385Z,4.90
2018-11-23T15:13:36.984Z,6.33
2018-11-23T15:16:08.850Z,5.90
2018-11-23T15:18:38.426Z,6.43
2018-11-23T15:21:09.593Z,6.23
2018-11-23T15:23:39.099Z,3.40
2018-11-23T15:26:08.760Z,3.27
2018-11-23T15:28:38.831Z,5.70
2018-11-23T15:31:08.632Z,4.23
2018-11-23T15:33:38.220Z,5.63
2018-11-23T15:36:27.001Z,6.37
2018-11-23T15:39:15.477Z,4.67
2018-11-23T15:41:45.470Z,5.73
2018-11-23T15:44:33.724Z,6.03
2018-11-23T15:47:03.620Z,6.90
2018-11-23T15:49:33.234Z,6.83
2018-11-23T15:52:03.088Z,7.07
2018-11-23T15:54:32.956Z,5.57
2018-11-23T15:57:02.538Z,6.47
2018-11-23T15:59:32.141Z,6.40
2018-11-23T16:02:01.853Z,4.17
2018-11-23T16:04:50.070Z,5.23
2018-11-23T16:07:19.994Z,4.37
2018-11-23T16:09:49.601Z,4.20
2018-11-23T16:12:19.193Z,4.63
2018-11-23T16:14:49.469Z,5.33
2018-11-23T16:17:19.081Z,6.10
2018-11-23T16:20:07.440Z,5.73
2018-11-23T16:22:37.287Z,6.30
2018-11-23T16:25:08.442Z,5.30
2018-11-23T16:27:38.617Z,5.70
2018-11-23T16:30:12.916Z,5.03
2018-11-23T16:32:42.598Z,5.83
2018-11-23T16:35:12.367Z,4.47
2018-11-23T16:37:42.461Z,5.67
2018-11-23T16:40:14.313Z,5.90
2018-11-23T16:42:44.227Z,5.27
2018-11-23T16:45:34.105Z,6.67
2018-11-23T16:48:05.159Z,6.27
2018-11-23T16:50:34.949Z,5.23
2018-11-23T16:53:26.165Z,6.50
2018-11-23T16:55:55.761Z,4.70
2018-11-23T16:58:44.126Z,5.87
2018-11-23T17:01:13.709Z,5.40
2018-11-23T17:03:43.401Z,3.60
2018-11-23T17:06:13.255Z,4.90
2018-11-23T17:08:42.868Z,6.97
2018-11-23T17:11:12.492Z,5.63
2018-11-23T17:13:42.415Z,6.20
2018-11-23T17:16:30.998Z,6.33
2018-11-23T17:19:00.957Z,6.63
2018-11-23T17:21:30.541Z,6.53
2018-11-23T17:24:00.142Z,5.70
2018-11-23T17:26:29.876Z,5.20
2018-11-23T17:28:59.459Z,6.10
2018-11-23T17:31:29.059Z,6.73
2018-11-23T17:33:58.858Z,6.47
2018-11-23T17:36:28.449Z,6.10
2018-11-23T17:38:58.078Z,6.60
2018-11-23T17:41:28.445Z,6.67
2018-11-23T17:43:58.167Z,6.37
2018-11-23T17:46:27.686Z,6.90
2018-11-23T17:48:57.517Z,7.10
2018-11-23T17:51:27.169Z,6.77
2018-11-23T17:53:56.785Z,6.50
2018-11-23T17:56:29.900Z,6.87
2018-11-23T17:58:59.749Z,6.13
2018-11-23T18:01:48.257Z,7.40
2018-11-23T18:04:18.009Z,6.43
2018-11-23T18:06:47.600Z,5.73
2018-11-23T18:09:17.748Z,6.70
2018-11-23T18:11:47.357Z,6.60
2018-11-23T18:14:16.970Z,7.17
2018-11-23T18:16:46.904Z,6.43
2018-11-23T18:19:16.757Z,3.83
2018-11-23T18:21:46.333Z,5.77
2018-11-23T18:24:16.247Z,6.67
2018-11-23T18:26:45.851Z,6.57
2018-11-23T18:29:15.464Z,6.67
2018-11-23T18:31:45.203Z,6.23
2018-11-23T18:34:14.795Z,6.90
2018-11-23T18:36:44.466Z,7.00
2018-11-23T18:39:14.396Z,6.60
2018-11-23T18:41:43.968Z,6.53
2018-11-23T18:44:13.540Z,6.90
2018-11-23T18:46:43.412Z,6.43
2018-11-23T18:49:13.007Z,7.30
2018-11-23T18:51:42.615Z,7.13
2018-11-23T18:54:12.863Z,6.97
2018-11-23T18:56:42.436Z,7.87
2018-11-23T18:59:12.101Z,7.23
2018-11-23T19:01:41.851Z,7.07
2018-11-23T19:04:11.444Z,7.53
2018-11-23T19:06:41.411Z,5.57
2018-11-23T19:09:11.727Z,7.00
2018-11-23T19:11:41.695Z,6.53
2018-11-23T19:14:30.251Z,6.90
2018-11-23T19:17:00.046Z,6.23
2018-11-23T19:19:29.637Z,5.73
2018-11-23T19:21:59.523Z,5.67
2018-11-23T19:24:29.128Z,5.57
2018-11-23T19:26:59.337Z,6.47
2018-11-23T19:29:29.036Z,6.47
2018-11-23T19:32:17.247Z,7.27
2018-11-23T19:35:06.383Z,5.77
2018-11-23T19:37:35.994Z,4.17
2018-11-23T19:40:25.098Z,6.67
2018-11-23T19:43:13.601Z,6.97
2018-11-23T19:45:43.500Z,5.83
2018-11-23T19:48:13.532Z,6.50
2018-11-23T19:50:43.097Z,3.63
2018-11-23T19:53:13.018Z,7.23
2018-11-23T19:55:42.560Z,6.63
2018-11-23T19:58:12.222Z,6.80
2018-11-23T20:00:42.401Z,5.90
2018-11-23T20:03:12.038Z,5.87
2018-11-23T20:05:41.614Z,6.17
2018-11-23T20:08:11.523Z,6.87
2018-11-23T20:11:10.312Z,7.67
2018-11-23T20:13:40.129Z,6.93
2018-11-23T20:16:09.712Z,5.10
2018-11-23T20:18:39.652Z,5.27
2018-11-23T20:21:09.456Z,4.90
2018-11-23T20:23:39.043Z,7.13
2018-11-23T20:26:08.636Z,6.27
2018-11-23T20:28:38.562Z,7.57
2018-11-23T20:31:29.007Z,7.30
2018-11-23T20:33:58.970Z,7.17
2018-11-23T20:36:28.563Z,6.53
2018-11-23T20:38:58.176Z,6.60
2018-11-23T20:41:27.970Z,7.17
2018-11-23T20:43:57.576Z,5.77
2018-11-23T20:46:27.176Z,7.20
2018-11-23T20:48:57.440Z,7.07
2018-11-23T20:51:27.071Z,3.17
2018-11-23T20:53:56.760Z,7.13
2018-11-23T20:56:26.532Z,6.80
2018-11-23T20:58:56.142Z,8.30
2018-11-23T21:01:25.888Z,7.97
2018-11-23T21:03:55.702Z,7.90
2018-11-23T21:06:25.507Z,7.30
2018-11-23T21:09:14.270Z,8.30
2018-11-23T21:11:44.043Z,6.97
2018-11-23T21:14:13.620Z,7.33
2018-11-23T21:17:02.315Z,7.67
2018-11-23T21:19:31.976Z,6.87
2018-11-23T21:22:01.584Z,7.40
2018-11-23T21:24:31.522Z,8.60
2018-11-23T21:27:01.124Z,6.33
2018-11-23T21:29:30.765Z,8.63
2018-11-23T21:32:00.509Z,9.60
2018-11-23T21:34:30.134Z,8.47
2018-11-23T21:37:19.565Z,7.97
2018-11-23T21:39:49.187Z,8.53
2018-11-23T21:42:18.810Z,8.47
2018-11-23T21:45:08.259Z,7.77
2018-11-23T21:50:32.146Z,7.87
2018-11-23T21:53:01.735Z,8.53
2018-11-23T21:55:31.644Z,7.60
2018-11-23T21:58:01.391Z,8.33
2018-11-23T22:00:30.984Z,9.07
2018-11-23T22:03:02.983Z,8.10
2018-11-23T22:05:32.582Z,8.20
2018-11-23T22:08:02.183Z,8.93
2018-11-23T22:10:31.974Z,8.90
2018-11-23T22:13:20.223Z,8.47
2018-11-23T22:16:02.689Z,8.63
2018-11-23T22:18:32.331Z,8.73
2018-11-23T22:23:50.673Z,8.30
2018-11-23T22:26:20.272Z,7.90
2018-11-23T22:28:49.841Z,8.43
2018-11-23T22:31:19.794Z,8.00
2018-11-23T22:33:49.433Z,8.47
2018-11-23T22:36:38.190Z,8.13
2018-11-23T22:39:10.038Z,8.03
2018-11-23T22:41:58.485Z,9.10
2018-11-23T22:44:47.323Z,8.70
2018-11-23T22:47:17.175Z,8.77
2018-11-23T22:49:46.768Z,8.80
2018-11-23T22:52:16.356Z,9.70
2018-11-23T22:54:46.088Z,8.80
2018-11-23T22:57:15.667Z,9.30
2018-11-23T22:59:45.252Z,9.20
2018-11-23T23:02:15.121Z,9.87
2018-11-23T23:04:45.062Z,9.73
2018-11-23T23:07:14.647Z,9.60
2018-11-23T23:09:44.761Z,10.53
2018-11-23T23:12:14.353Z,10.87
2018-11-23T23:14:43.941Z,10.17
2018-11-23T23:17:13.887Z,10.13
2018-11-23T23:19:43.475Z,9.93
2018-11-23T23:22:13.344Z,10.50
2018-11-23T23:24:43.114Z,8.37
2018-11-23T23:27:12.759Z,9.83
2018-11-23T23:29:42.280Z,9.83
2018-11-23T23:32:12.142Z,9.77
2018-11-23T23:34:41.772Z,8.50
2018-11-23T23:37:11.351Z,11.03
2018-11-23T23:39:41.190Z,7.93
2018-11-23T23:42:11.183Z,10.77
2018-11-23T23:44:40.773Z,11.00
2018-11-23T23:47:10.534Z,11.13
2018-11-23T23:49:58.750Z,10.20
2018-11-23T23:52:47.340Z,9.97
2018-11-23T23:55:17.146Z,8.03
2018-11-23T23:57:47.391Z,7.77
